Time;durP1;ratioP1;P1;durP2;ratioP2;P2;SDS_P1;SDS_P2;PMS_P1;PMS_P2;Temp;Humidity;BMP_temperature;BMP_pressure;BME280_temperature;BME280_humidity;BME280_pressure;Samples;Min_cycle;Max_cycle;Signal;HPM_P1;HPM_P2
2022/10/14 00:01:10;;;;;;;20.65;12.37;;;;;;;5.48;89.89;98709.94;1809412;78;21039;-59
2022/10/14 00:03:38;;;;;;;23.60;12.03;;;;;;;5.48;89.89;98708.09;1815384;77;20908;-58
2022/10/14 00:06:08;;;;;;;17.05;11.60;;;;;;;5.45;89.87;98704.57;1815932;78;21902;-59
2022/10/14 00:08:35;;;;;;;16.02;11.90;;;;;;;5.44;89.85;98698.96;1810860;78;20838;-58
2022/10/14 00:11:08;;;;;;;24.65;12.45;;;;;;;5.40;89.85;98699.69;1816114;77;21458;-58
2022/10/14 00:13:35;;;;;;;18.48;12.07;;;;;;;5.36;89.85;98698.05;1811668;78;21028;-57
2022/10/14 00:16:01;;;;;;;20.45;12.60;;;;;;;5.31;89.86;98688.66;1811027;78;20955;-57
2022/10/14 00:18:28;;;;;;;21.77;13.08;;;;;;;5.24;89.99;98685.34;1812198;77;21214;-58
2022/10/14 00:20:59;;;;;;;22.30;12.93;;;;;;;5.19;90.15;98687.91;1817340;77;20916;-58
2022/10/14 00:23:28;;;;;;;21.33;12.15;;;;;;;5.15;90.33;98686.78;1817965;77;20916;-59
2022/10/14 00:25:55;;;;;;;24.15;12.18;;;;;;;5.11;90.52;98686.95;1808838;78;20999;-58
2022/10/14 00:28:23;;;;;;;20.10;12.23;;;;;;;5.09;90.83;98683.73;1809915;77;20913;-58
2022/10/14 00:30:58;;;;;;;21.68;12.28;;;;;;;5.08;90.98;98683.47;1809391;78;22316;-58
2022/10/14 00:33:25;;;;;;;19.15;12.93;;;;;;;5.08;91.21;98681.33;1810186;78;21462;-58
2022/10/14 00:35:58;;;;;;;29.65;12.55;;;;;;;5.06;91.35;98674.13;1819229;77;20920;-58
2022/10/14 00:41:07;;;;;;;22.20;11.35;;;;;;;4.99;91.61;98661.52;1809430;78;20885;-58
2022/10/14 00:44:06;;;;;;;17.42;11.30;;;;;;;4.96;91.75;98664.63;1810452;78;21018;-59
2022/10/14 00:46:38;;;;;;;26.77;12.10;;;;;;;4.95;92.08;98661.69;1814410;77;20959;-59
2022/10/14 00:49:14;;;;;;;18.77;11.97;;;;;;;4.94;92.34;98658.77;1811804;78;21019;-59
2022/10/14 00:51:44;;;;;;;17.52;11.80;;;;;;;4.92;92.41;98657.69;1810501;78;21381;-60
2022/10/14 00:54:11;;;;;;;21.27;11.78;;;;;;;4.91;92.52;98652.08;1814796;77;21017;-59
2022/10/14 00:56:37;;;;;;;22.02;12.55;;;;;;;4.90;92.59;98658.96;1812322;78;21298;-59
2022/10/14 00:59:05;;;;;;;19.17;11.63;;;;;;;4.85;92.71;98650.39;1816987;77;20959;-59
2022/10/14 01:01:32;;;;;;;36.15;12.30;;;;;;;4.85;92.86;98647.73;1810858;77;20956;-59
2022/10/14 01:03:58;;;;;;;21.52;12.47;;;;;;;4.85;92.98;98646.41;1812351;78;21050;-60
2022/10/14 01:06:42;;;;;;;17.67;12.00;;;;;;;4.84;93.10;98638.95;1812228;77;20912;-59
2022/10/14 01:09:37;;;;;;;19.52;12.25;;;;;;;4.83;93.25;98636.52;1775042;77;21078;-57
2022/10/14 01:12:18;;;;;;;24.75;11.68;;;;;;;4.87;93.27;98631.55;1810345;78;21087;-58
2022/10/14 01:15:42;;;;;;;18.92;12.40;;;;;;;4.83;93.27;98628.55;1808403;78;20909;-60
2022/10/14 01:18:51;;;;;;;18.87;11.50;;;;;;;4.81;93.45;98620.03;1810971;77;21037;-58
2022/10/14 01:21:38;;;;;;;17.42;11.78;;;;;;;4.76;93.59;98619.93;1821089;77;21006;-59
2022/10/14 01:24:11;;;;;;;;;;;;;;;4.74;93.83;98611.41;1811761;78;21269;-57
2022/10/14 01:27:10;;;;;;;20.50;11.05;;;;;;;4.72;93.89;98608.19;1821537;77;20080;-58
2022/10/14 01:30:16;;;;;;;17.45;11.80;;;;;;;4.69;94.02;98613.45;1812032;77;21396;-58
2022/10/14 01:32:51;;;;;;;21.25;12.03;;;;;;;4.67;94.10;98620.03;1785310;78;20953;-58
2022/10/14 01:36:01;;;;;;;25.17;11.33;;;;;;;4.65;94.19;98622.13;1817684;77;21321;-58
2022/10/14 01:38:45;;;;;;;23.05;11.55;;;;;;;4.63;94.36;98622.88;1814483;77;21073;-58
2022/10/14 01:41:27;;;;;;;19.00;11.00;;;;;;;4.58;94.49;98620.94;1817262;77;20924;-58
2022/10/14 01:43:55;;;;;;;22.42;11.68;;;;;;;4.56;94.72;98615.59;1808249;77;20832;-58
2022/10/14 01:46:23;;;;;;;25.70;12.50;;;;;;;4.57;94.78;98616.66;1810327;78;21005;-58
2022/10/14 01:49:03;;;;;;;19.92;11.85;;;;;;;4.54;94.84;98611.04;1811800;78;20915;-58
2022/10/14 01:51:35;;;;;;;21.87;11.60;;;;;;;4.51;94.92;98614.16;1813896;77;21114;-59
2022/10/14 01:54:10;;;;;;;19.00;11.22;;;;;;;4.50;95.08;98613.89;1815121;78;20829;-58
2022/10/14 01:56:36;;;;;;;23.57;11.25;;;;;;;4.48;95.22;98618.59;1812974;78;20865;-59
2022/10/14 01:59:03;;;;;;;22.77;12.25;;;;;;;4.47;95.35;98618.33;1793276;79;20937;-59
2022/10/14 02:01:31;;;;;;;22.13;12.25;;;;;;;4.46;95.59;98614.05;1814629;77;20964;-58
2022/10/14 02:03:59;;;;;;;18.67;11.83;;;;;;;4.47;95.60;98605.06;1791038;79;20988;-58
2022/10/14 02:06:35;;;;;;;18.50;12.20;;;;;;;4.45;95.59;98607.16;1811747;77;20920;-58
2022/10/14 02:09:11;;;;;;;16.60;10.95;;;;;;;4.46;95.78;98600.79;1823465;77;20960;-57
2022/10/14 02:12:05;;;;;;;18.98;11.68;;;;;;;4.49;95.86;98599.00;1818405;77;21527;-59
2022/10/14 02:14:51;;;;;;;21.35;11.68;;;;;;;4.46;95.85;98599.46;1815078;77;20879;-58
2022/10/14 02:17:46;;;;;;;19.67;12.25;;;;;;;4.46;96.03;98606.09;1807612;78;21274;-58
2022/10/14 02:20:19;;;;;;;20.43;12.37;;;;;;;4.50;96.17;98601.95;1809341;78;21381;-58
2022/10/14 02:23:01;;;;;;;21.87;10.93;;;;;;;4.53;96.19;98597.48;1815399;77;20880;-58
2022/10/14 02:25:33;;;;;;;21.55;12.03;;;;;;;4.56;96.23;98597.02;1790636;78;21018;-58
2022/10/14 02:28:00;;;;;;;18.90;10.30;;;;;;;4.56;96.22;98597.02;1811092;78;20949;-58
2022/10/14 02:30:30;;;;;;;20.45;11.63;;;;;;;4.55;96.25;98599.37;1792791;78;21057;-58
2022/10/14 02:32:56;;;;;;;25.92;11.85;;;;;;;4.53;96.19;98598.80;1812400;78;20955;-58
2022/10/14 02:35:23;;;;;;;20.50;11.95;;;;;;;4.49;96.23;98597.67;1812218;78;21510;-58
2022/10/14 02:37:49;;;;;;;20.30;11.57;;;;;;;4.49;96.26;98600.33;1816532;77;20837;-58
2022/10/14 02:40:28;;;;;;;19.77;11.45;;;;;;;4.48;96.21;98596.05;1787241;78;20951;-58
2022/10/14 02:42:55;;;;;;;21.42;11.20;;;;;;;4.49;96.11;98593.18;1813268;78;21108;-57
2022/10/14 02:45:26;;;;;;;23.62;11.08;;;;;;;4.49;96.10;98597.67;1819046;77;20892;-58
2022/10/14 02:47:54;;;;;;;18.85;11.48;;;;;;;4.46;96.04;98594.16;1810341;78;21561;-58
2022/10/14 02:50:21;;;;;;;16.95;11.50;;;;;;;4.44;96.03;98590.94;1810685;78;21062;-58
2022/10/14 02:52:47;;;;;;;17.85;11.12;;;;;;;4.41;96.02;98591.41;1811051;78;21484;-58
2022/10/14 02:55:14;;;;;;;15.32;10.93;;;;;;;4.38;96.04;98593.22;1816099;78;21105;-58
2022/10/14 02:57:41;;;;;;;18.65;11.08;;;;;;;4.34;96.03;98593.39;1810402;78;20891;-58
2022/10/14 03:00:10;;;;;;;19.07;11.75;;;;;;;4.33;96.08;98597.91;1817602;77;20964;-58
2022/10/14 03:02:37;;;;;;;22.40;11.63;;;;;;;4.33;96.21;98585.16;1790205;79;20892;-58
2022/10/14 03:05:04;;;;;;;19.95;10.95;;;;;;;4.33;96.27;98585.16;1813132;77;20884;-59
2022/10/14 03:07:31;;;;;;;16.95;10.70;;;;;;;4.33;96.34;98587.81;1817952;77;21107;-59
2022/10/14 03:10:01;;;;;;;17.52;12.37;;;;;;;4.35;96.40;98585.73;1814875;78;21007;-59
2022/10/14 03:12:32;;;;;;;18.50;11.22;;;;;;;4.35;96.44;98591.84;1812438;77;20990;-58
2022/10/14 03:15:00;;;;;;;18.17;11.43;;;;;;;4.38;96.41;98595.33;1808293;78;20877;-58
2022/10/14 03:17:28;;;;;;;15.88;10.45;;;;;;;4.38;96.42;98594.00;1814461;77;20972;-57
2022/10/14 03:19:58;;;;;;;15.85;10.95;;;;;;;4.42;96.59;98597.01;1812641;78;20868;-58
2022/10/14 03:22:25;;;;;;;17.20;10.93;;;;;;;4.45;96.70;98596.55;1809458;78;21027;-58
2022/10/14 03:24:53;;;;;;;22.02;11.93;;;;;;;4.47;96.76;98597.92;1794758;78;21499;-57
2022/10/14 03:27:21;;;;;;;20.70;10.82;;;;;;;4.48;96.78;98598.70;1819039;77;20927;-58
2022/10/14 03:29:50;;;;;;;18.85;10.75;;;;;;;4.48;96.87;98594.20;1810615;77;21330;-58
2022/10/14 03:32:19;;;;;;;23.02;10.80;;;;;;;4.47;97.00;98593.13;1815532;78;21074;-59
2022/10/14 03:34:48;;;;;;;21.95;11.73;;;;;;;4.49;97.21;98583.89;1766445;77;20948;-58
2022/10/14 03:37:16;;;;;;;22.05;10.82;;;;;;;4.51;97.23;98580.48;1814207;77;21384;-58
2022/10/14 03:39:45;;;;;;;20.72;10.90;;;;;;;4.54;97.34;98584.00;1809891;78;20958;-58
2022/10/14 03:42:12;;;;;;;19.20;11.12;;;;;;;4.55;97.37;98575.48;1809869;78;20963;-58
2022/10/14 03:44:40;;;;;;;22.00;10.55;;;;;;;4.58;97.42;98578.48;1812368;78;21542;-58
2022/10/14 03:47:12;;;;;;;18.92;10.75;;;;;;;4.63;97.42;98580.43;1810900;77;20911;-58
2022/10/14 03:49:39;;;;;;;19.45;11.08;;;;;;;4.67;97.49;98581.55;1813677;78;20912;-59
2022/10/14 03:52:08;;;;;;;18.20;10.53;;;;;;;4.71;97.58;98577.41;1818525;77;20869;-58
2022/10/14 03:54:35;;;;;;;22.85;11.45;;;;;;;4.77;97.57;98581.75;1812842;77;20960;-58
2022/10/14 03:57:02;;;;;;;15.08;10.13;;;;;;;4.83;97.49;98579.45;1809598;78;21234;-58
2022/10/14 03:59:30;;;;;;;19.55;10.95;;;;;;;4.88;97.43;98578.73;1811627;78;20864;-59
2022/10/14 04:01:58;;;;;;;16.30;10.50;;;;;;;4.91;97.38;98573.77;1813305;78;20877;-58
2022/10/14 04:04:25;;;;;;;16.93;10.53;;;;;;;4.96;97.22;98578.35;1814205;78;20966;-58
2022/10/14 04:06:52;;;;;;;17.85;10.45;;;;;;;5.00;97.27;98584.78;1810898;77;21004;-58
2022/10/14 04:09:19;;;;;;;19.00;10.75;;;;;;;5.03;97.23;98582.47;1815993;77;21214;-58
2022/10/14 04:11:46;;;;;;;20.70;9.80;;;;;;;5.08;97.20;98579.09;1811267;77;20878;-59
2022/10/14 04:14:33;;;;;;;18.05;10.80;;;;;;;5.15;97.00;98579.22;1774968;77;21047;-58
2022/10/14 04:17:01;;;;;;;18.02;9.43;;;;;;;5.18;96.75;98580.05;1812435;78;21525;-58
2022/10/14 04:19:28;;;;;;;19.02;10.38;;;;;;;5.20;96.60;98579.31;1809396;78;22629;-58
2022/10/14 04:21:55;;;;;;;18.55;10.03;;;;;;;5.22;96.45;98581.72;1810431;78;22107;-58
2022/10/14 04:24:23;;;;;;;18.10;9.95;;;;;;;5.24;96.45;98584.41;1809044;78;21045;-58
2022/10/14 04:26:52;;;;;;;16.90;10.55;;;;;;;5.29;96.35;98585.83;1809898;78;21454;-58
2022/10/14 04:29:27;;;;;;;17.15;9.78;;;;;;;5.34;96.20;98585.91;1807423;78;20972;-58
2022/10/14 04:31:58;;;;;;;19.25;10.90;;;;;;;5.40;96.05;98585.45;1812505;77;20925;-59
2022/10/14 04:34:25;;;;;;;15.93;9.90;;;;;;;5.46;95.81;98587.94;1810409;78;21211;-59
2022/10/14 04:36:52;;;;;;;20.95;10.25;;;;;;;5.51;95.66;98589.89;1813830;77;21065;-59
2022/10/14 04:39:21;;;;;;;17.75;10.15;;;;;;;5.53;95.34;98576.61;1809575;78;20955;-59
2022/10/14 04:41:48;;;;;;;19.87;10.65;;;;;;;5.54;95.16;98575.58;1812704;77;20920;-59
2022/10/14 04:44:18;;;;;;;19.65;10.13;;;;;;;5.53;94.93;98573.95;1816663;77;20880;-57
2022/10/14 04:46:47;;;;;;;18.42;10.30;;;;;;;5.53;94.88;98571.30;1810785;77;21099;-59
2022/10/14 04:49:15;;;;;;;19.30;11.12;;;;;;;5.56;94.60;98575.87;1820407;77;20880;-59
2022/10/14 04:51:44;;;;;;;15.18;10.30;;;;;;;5.57;94.49;98575.61;1809571;78;21058;-58
2022/10/14 04:54:15;;;;;;;17.98;9.58;;;;;;;5.58;94.35;98570.59;1812159;77;21608;-58
2022/10/14 04:56:43;;;;;;;21.95;9.38;;;;;;;5.57;94.27;98568.97;1804546;78;20935;-58
2022/10/14 04:59:11;;;;;;;19.00;10.25;;;;;;;5.61;94.30;98567.42;1816180;78;21616;-58
2022/10/14 05:01:57;;;;;;;17.42;11.03;;;;;;;5.64;94.19;98554.98;1813154;78;20897;-58
2022/10/14 05:04:26;;;;;;;17.87;11.80;;;;;;;5.65;94.03;98551.81;1820220;77;20995;-58
2022/10/14 05:06:54;;;;;;;16.10;10.28;;;;;;;5.65;93.85;98554.47;1811952;78;21006;-58
2022/10/14 05:09:23;;;;;;;15.78;9.68;;;;;;;5.62;93.71;98549.64;1811540;78;20900;-58
2022/10/14 05:11:50;;;;;;;16.73;9.13;;;;;;;5.61;93.61;98555.98;1812326;77;21212;-58
2022/10/14 05:14:21;;;;;;;15.38;9.33;;;;;;;5.60;93.67;98557.05;1811611;78;20991;-59
2022/10/14 05:16:49;;;;;;;16.90;9.95;;;;;;;5.62;93.74;98558.94;1789233;78;21122;-59
2022/10/14 05:19:19;;;;;;;18.48;10.40;;;;;;;5.61;93.57;98562.63;1811005;78;20976;-59
2022/10/14 05:21:47;;;;;;;16.50;9.83;;;;;;;5.61;93.69;98561.30;1811199;78;20872;-59
2022/10/14 05:24:16;;;;;;;16.82;9.90;;;;;;;5.65;93.66;98559.27;1816780;77;21075;-59
2022/10/14 05:26:43;;;;;;;14.63;9.68;;;;;;;5.68;93.61;98556.62;1815042;78;20955;-59
2022/10/14 05:29:11;;;;;;;14.18;9.20;;;;;;;5.72;93.44;98563.08;1806240;78;20874;-59
2022/10/14 05:31:38;;;;;;;17.32;9.35;;;;;;;5.71;93.42;98565.44;1809089;78;21532;-59
2022/10/14 05:34:06;;;;;;;15.23;9.93;;;;;;;5.71;93.47;98571.56;1811092;77;20916;-60
2022/10/14 05:36:34;;;;;;;15.28;9.70;;;;;;;5.74;93.48;98563.62;1819540;77;21101;-59
2022/10/14 05:54:57;;;;;;;21.42;11.33;;;;;;;5.88;93.85;98567.57;1799001;79;20983;-56
2022/10/14 05:57:26;;;;;;;18.25;10.75;;;;;;;5.92;93.78;98565.50;1782128;79;21450;-58
2022/10/14 05:59:55;;;;;;;18.37;10.93;;;;;;;5.94;93.73;98565.25;1795262;79;20893;-58
2022/10/14 06:02:26;;;;;;;19.20;11.18;;;;;;;5.94;93.74;98562.59;1777397;79;21060;-56
2022/10/14 06:04:53;;;;;;;21.57;13.60;;;;;;;5.94;93.91;98562.59;1762158;80;20978;-56
2022/10/14 06:07:21;;;;;;;27.27;19.50;;;;;;;5.97;94.08;98558.11;1753802;80;21494;-56
2022/10/14 06:09:48;;;;;;;21.45;12.70;;;;;;;6.01;94.26;98558.70;1825622;77;20990;-57
2022/10/14 06:12:16;;;;;;;23.57;14.03;;;;;;;6.05;94.23;98551.05;1806807;78;21086;-56
2022/10/14 06:14:47;;;;;;;17.42;11.78;;;;;;;6.05;94.26;98556.37;1808795;78;21144;-57
2022/10/14 06:17:17;;;;;;;19.23;12.80;;;;;;;6.08;94.38;98551.86;1809294;78;20887;-56
2022/10/14 06:19:47;;;;;;;21.35;10.82;;;;;;;6.12;94.46;98553.00;1809215;78;20912;-55
2022/10/14 06:22:21;;;;;;;;;;;;;;;6.16;94.67;98552.77;1813574;78;20967;-57
2022/10/14 06:24:49;;;;;;;15.93;10.40;;;;;;;6.23;94.78;98554.72;1807514;78;20415;-57
2022/10/14 06:27:21;;;;;;;17.70;10.32;;;;;;;6.29;94.87;98556.92;1819063;77;21190;-56
2022/10/14 06:29:48;;;;;;;16.48;9.43;;;;;;;6.34;94.80;98557.77;1809473;79;20935;-57
2022/10/14 06:32:16;;;;;;;16.17;9.73;;;;;;;6.38;94.82;98554.91;1808423;78;21376;-56
2022/10/14 06:34:42;;;;;;;16.00;9.80;;;;;;;6.41;94.87;98556.23;1810342;78;21248;-57
2022/10/14 06:37:09;;;;;;;15.08;10.32;;;;;;;6.44;94.96;98557.08;1825808;77;20884;-57
2022/10/14 06:39:36;;;;;;;24.90;12.93;;;;;;;6.49;95.03;98553.14;1815801;79;21112;-57
2022/10/14 06:42:03;;;;;;;20.48;11.57;;;;;;;6.51;94.97;98553.69;1811350;78;21510;-57
2022/10/14 06:44:33;;;;;;;15.00;9.78;;;;;;;6.53;95.01;98553.72;1812384;79;21055;-56
2022/10/14 06:47:01;;;;;;;15.72;10.43;;;;;;;6.58;95.22;98555.11;1803295;78;20894;-56
2022/10/14 06:49:29;;;;;;;21.12;12.90;;;;;;;6.66;95.54;98553.34;1806240;79;21092;-56
2022/10/14 06:52:01;;;;;;;19.40;13.28;;;;;;;6.77;95.60;98554.22;1810617;77;20931;-56
2022/10/14 06:54:29;;;;;;;23.73;15.20;;;;;;;6.87;95.56;98543.16;1795807;78;20900;-56
2022/10/14 06:56:58;;;;;;;23.73;13.30;;;;;;;6.99;95.77;98543.52;1779671;79;21090;-57
2022/10/14 06:59:27;;;;;;;22.05;13.75;;;;;;;7.12;95.78;98547.07;1779274;79;21054;-56
2022/10/14 07:01:55;;;;;;;32.15;16.55;;;;;;;7.24;95.76;98545.03;1791250;78;21047;-56
2022/10/14 07:04:22;;;;;;;25.50;14.70;;;;;;;7.40;95.79;98544.09;1797046;78;21114;-56
2022/10/14 07:06:50;;;;;;;19.20;12.00;;;;;;;7.56;95.60;98545.27;1817356;77;20991;-56
2022/10/14 07:09:22;;;;;;;22.27;12.63;;;;;;;7.72;95.21;98542.17;1806812;77;20978;-56
2022/10/14 07:11:49;;;;;;;19.42;10.85;;;;;;;7.86;94.98;98538.51;1781474;79;21449;-57
2022/10/14 07:14:17;;;;;;;22.77;13.15;;;;;;;7.99;94.70;98534.83;1783102;77;21019;-55
2022/10/14 07:16:43;;;;;;;23.55;12.33;;;;;;;8.13;94.58;98537.82;1816500;77;21090;-56
2022/10/14 07:19:13;;;;;;;21.80;13.22;;;;;;;8.28;94.31;98537.11;1820330;77;20879;-56
2022/10/14 07:21:45;;;;;;;22.95;13.88;;;;;;;8.44;94.35;98534.75;1811092;77;20979;-56
2022/10/14 07:24:13;;;;;;;19.65;12.18;;;;;;;8.64;94.17;98529.47;1807468;77;21105;-57
2022/10/14 07:26:40;;;;;;;16.80;11.20;;;;;;;8.84;93.69;98529.48;1812817;77;21487;-57
2022/10/14 07:29:07;;;;;;;18.20;10.05;;;;;;;8.99;93.29;98530.85;1809087;78;21185;-57
2022/10/14 07:31:38;;;;;;;15.68;9.83;;;;;;;9.10;92.51;98523.63;1818391;77;21487;-57
2022/10/14 07:34:06;;;;;;;19.25;10.38;;;;;;;9.20;92.29;98528.45;1763937;80;20978;-56
2022/10/14 07:36:33;;;;;;;38.25;22.25;;;;;;;9.32;91.64;98528.98;1793695;79;21043;-57
2022/10/14 07:39:01;;;;;;;36.88;21.60;;;;;;;9.41;91.34;98524.69;1783713;79;20871;-56
2022/10/14 07:41:31;;;;;;;70.15;37.63;;;;;;;9.54;91.06;98525.98;1783737;79;21093;-57
2022/10/14 07:44:07;;;;;;;22.85;15.48;;;;;;;9.69;90.64;98525.16;1794623;78;21600;-58
2022/10/14 07:46:34;;;;;;;53.33;29.27;;;;;;;9.82;90.01;98523.27;1796865;79;21561;-55
2022/10/14 07:49:14;;;;;;;17.37;11.05;;;;;;;9.95;89.88;98518.66;1798314;79;21016;-55
2022/10/14 07:51:41;;;;;;;14.75;9.93;;;;;;;10.10;89.26;98522.63;1803375;78;20884;-57
2022/10/14 07:54:16;;;;;;;17.57;9.65;;;;;;;10.19;88.61;98523.69;1785709;79;21098;-57
2022/10/14 07:56:44;;;;;;;16.12;10.95;;;;;;;10.22;88.63;98520.47;1810251;77;21073;-57
2022/10/14 07:59:13;;;;;;;12.90;9.33;;;;;;;10.29;88.93;98526.33;1810299;77;21043;-57
2022/10/14 08:01:41;;;;;;;12.37;9.30;;;;;;;10.36;88.63;98526.83;1810628;77;20971;-56
2022/10/14 08:04:12;;;;;;;14.25;10.35;;;;;;;10.41;88.48;98528.11;1820852;77;21514;-57
2022/10/14 08:06:39;;;;;;;17.10;10.88;;;;;;;10.45;88.60;98531.86;1808305;77;21516;-56
2022/10/14 08:09:09;;;;;;;12.40;10.08;;;;;;;10.50;88.61;98523.81;1797743;78;21055;-57
2022/10/14 08:11:38;;;;;;;15.35;9.98;;;;;;;10.54;88.60;98535.56;1801252;78;21010;-57
2022/10/14 08:14:09;;;;;;;16.90;11.20;;;;;;;10.61;88.80;98530.70;1809399;77;21561;-57
2022/10/14 08:16:38;;;;;;;18.27;11.55;;;;;;;10.74;88.72;98534.09;1810886;77;21103;-56
2022/10/14 08:19:10;;;;;;;21.20;11.10;;;;;;;10.85;88.45;98533.49;1806065;77;22042;-57
2022/10/14 08:21:40;;;;;;;14.53;10.32;;;;;;;10.97;88.13;98541.42;1769947;78;21137;-56
2022/10/14 08:24:08;;;;;;;14.70;10.75;;;;;;;11.11;87.59;98537.59;1793810;79;20967;-56
2022/10/14 08:26:53;;;;;;;12.43;10.18;;;;;;;11.18;86.68;98537.27;1811653;77;21101;-57
2022/10/14 08:29:24;;;;;;;15.08;10.98;;;;;;;11.23;86.53;98533.20;1833889;77;21053;-57
2022/10/14 08:31:54;;;;;;;17.50;10.48;;;;;;;11.32;86.27;98538.22;1822617;77;21071;-57
2022/10/14 08:34:40;;;;;;;15.72;10.05;;;;;;;11.37;85.83;98534.16;1786800;77;21101;-57
2022/10/14 08:37:10;;;;;;;16.93;10.30;;;;;;;11.45;85.72;98532.19;1733989;80;21734;-56
2022/10/14 08:39:38;;;;;;;13.72;10.23;;;;;;;11.56;85.30;98535.83;1805483;78;21516;-55
2022/10/14 08:42:31;;;;;;;15.35;10.85;;;;;;;11.65;85.22;98530.67;1811929;78;21666;-57
2022/10/14 08:45:13;;;;;;;16.20;10.43;;;;;;;11.79;85.11;98525.45;1780691;79;21261;-56
2022/10/14 08:47:43;;;;;;;19.75;10.48;;;;;;;11.97;84.68;98526.05;1763590;80;21099;-55
2022/10/14 08:50:27;;;;;;;15.72;10.55;;;;;;;12.16;84.01;98528.23;1763636;80;21122;-56
2022/10/14 08:53:14;;;;;;;14.73;9.80;;;;;;;12.26;82.95;98536.98;1782044;79;21549;-56
2022/10/14 08:55:46;;;;;;;13.70;9.33;;;;;;;12.26;82.34;98538.33;1793296;78;21502;-57
2022/10/14 08:58:20;;;;;;;17.00;9.35;;;;;;;12.29;82.24;98540.42;1775091;79;21126;-57
2022/10/14 09:00:50;;;;;;;18.12;10.20;;;;;;;12.35;81.99;98541.16;1784930;79;20937;-57
2022/10/14 09:03:31;;;;;;;14.70;9.88;;;;;;;12.40;81.48;98538.42;1776144;79;21050;-56
2022/10/14 09:05:59;;;;;;;13.10;9.20;;;;;;;12.43;81.16;98545.11;1769694;80;21095;-55
2022/10/14 09:08:37;;;;;;;12.45;9.05;;;;;;;12.40;80.80;98555.88;1782739;79;21167;-57
2022/10/14 09:11:06;;;;;;;14.50;8.60;;;;;;;12.34;80.98;98549.77;1723445;80;21121;-56
2022/10/14 09:13:38;;;;;;;11.93;9.05;;;;;;;12.32;81.17;98551.94;1769773;80;20967;-56
2022/10/14 09:16:20;;;;;;;14.53;8.93;;;;;;;12.26;80.56;98549.61;1769764;80;21135;-56
2022/10/14 09:18:51;;;;;;;;;;;;;;;12.20;80.93;98551.55;1759716;80;39255;-56
2022/10/14 09:21:38;;;;;;;13.58;9.68;;;;;;;12.21;81.07;98549.13;1738320;80;20144;-56
2022/10/14 09:24:28;;;;;;;12.70;8.58;;;;;;;12.22;80.78;98552.05;1763804;80;21359;-57
2022/10/14 09:27:20;;;;;;;11.33;8.55;;;;;;;12.25;81.19;98559.55;1742526;80;21703;-57
2022/10/14 09:29:58;;;;;;;13.30;9.28;;;;;;;12.36;80.93;98554.30;1775206;78;21098;-57
2022/10/14 09:32:44;;;;;;;10.45;8.10;;;;;;;12.46;80.25;98560.66;1772359;79;20958;-56
2022/10/14 09:35:20;;;;;;;12.28;8.13;;;;;;;12.51;79.54;98557.88;1777198;80;21109;-57
2022/10/14 09:37:47;;;;;;;17.57;8.43;;;;;;;12.57;78.68;98554.05;1782039;79;21030;-56
2022/10/14 09:40:38;;;;;;;9.88;7.75;;;;;;;12.58;78.88;98565.04;1765559;79;21066;-57
2022/10/14 09:43:16;;;;;;;10.68;7.40;;;;;;;12.64;78.38;98551.27;1792165;79;21012;-58
2022/10/14 09:46:11;;;;;;;11.57;7.92;;;;;;;12.70;78.37;98550.64;1783997;79;21053;-57
2022/10/14 09:48:51;;;;;;;9.83;8.05;;;;;;;12.75;78.17;98555.95;1769112;78;20954;-56
2022/10/14 09:51:24;;;;;;;14.98;8.65;;;;;;;12.78;78.04;98556.72;1753558;79;21105;-56
2022/10/14 09:54:02;;;;;;;14.15;8.68;;;;;;;12.87;78.32;98557.66;1778249;80;20954;-56
2022/10/14 09:56:38;;;;;;;12.40;8.43;;;;;;;12.91;77.36;98550.59;1784756;79;20978;-56
2022/10/14 09:59:18;;;;;;;9.83;8.15;;;;;;;12.88;77.26;98551.20;1781296;79;21110;-56
2022/10/14 10:01:58;;;;;;;9.90;7.30;;;;;;;12.86;77.20;98554.70;1722658;80;20993;-55
2022/10/14 10:04:43;;;;;;;10.20;7.60;;;;;;;12.82;77.33;98558.53;1737102;81;21891;-56
2022/10/14 10:07:33;;;;;;;8.90;7.70;;;;;;;12.83;77.73;98552.61;1741147;80;21082;-56
2022/10/14 10:10:18;;;;;;;11.10;7.97;;;;;;;12.88;77.58;98561.95;1742133;81;21137;-56
2022/10/14 10:12:46;;;;;;;15.17;9.13;;;;;;;12.90;77.36;98554.39;1756526;80;21112;-58
2022/10/14 10:15:20;;;;;;;14.10;8.90;;;;;;;12.94;77.23;98552.71;1775237;79;20964;-57
2022/10/14 10:17:51;;;;;;;9.83;8.40;;;;;;;12.89;77.30;98544.72;1742777;81;21231;-57
2022/10/14 10:20:30;;;;;;;16.50;8.15;;;;;;;12.84;77.24;98552.85;1781939;79;20935;-57
2022/10/14 10:22:57;;;;;;;12.73;8.30;;;;;;;12.80;76.87;98550.50;1782139;79;20927;-57
2022/10/14 10:25:26;;;;;;;11.48;8.35;;;;;;;12.86;76.44;98554.16;1777067;79;21076;-55
2022/10/14 10:27:57;;;;;;;12.93;8.60;;;;;;;12.85;76.12;98547.20;1781702;79;21323;-56
2022/10/14 10:30:31;;;;;;;13.55;8.90;;;;;;;12.82;75.88;98544.28;1778793;80;21223;-58
2022/10/14 10:33:23;;;;;;;11.08;8.93;;;;;;;12.78;75.70;98540.05;1762692;79;23760;-57
2022/10/14 10:36:32;;;;;;;11.43;9.73;;;;;;;12.72;75.74;98552.48;1739840;80;20982;-57
2022/10/14 10:39:17;;;;;;;10.40;8.90;;;;;;;12.59;76.03;98549.19;1780248;79;21059;-55
2022/10/14 10:42:18;;;;;;;10.23;8.60;;;;;;;12.48;76.22;98554.45;1778157;79;21234;-59
2022/10/14 10:45:14;;;;;;;11.57;8.90;;;;;;;12.35;76.96;98560.77;1759078;78;21760;-57
2022/10/14 10:47:56;;;;;;;11.63;9.35;;;;;;;12.31;77.33;98550.36;1779531;80;21037;-56
2022/10/14 10:50:56;;;;;;;15.45;9.03;;;;;;;12.30;77.27;98543.38;1775633;79;20999;-58
2022/10/14 10:53:45;;;;;;;13.70;10.03;;;;;;;12.26;77.42;98542.36;1766660;80;20958;-57
2022/10/14 10:56:43;;;;;;;13.88;9.20;;;;;;;12.23;77.86;98537.55;1783183;79;21086;-57
2022/10/14 10:59:34;;;;;;;18.20;9.95;;;;;;;12.25;78.01;98544.77;1731335;79;21105;-57
2022/10/14 11:02:58;;;;;;;14.45;9.85;;;;;;;12.16;77.85;98545.16;1777117;79;21060;-57
2022/10/14 11:05:53;;;;;;;17.85;11.63;;;;;;;12.07;77.96;98540.17;1779917;79;20970;-56
2022/10/14 11:12:02;;;;;;;18.27;11.10;;;;;;;12.04;79.10;98534.02;1752703;80;21047;-56
2022/10/14 11:14:54;;;;;;;17.27;10.23;;;;;;;12.08;79.21;98531.01;1732509;82;21328;-56
2022/10/14 11:18:19;;;;;;;13.38;9.80;;;;;;;12.08;79.34;98532.35;1760625;78;21608;-55
2022/10/14 11:21:09;;;;;;;18.02;10.20;;;;;;;12.03;79.63;98529.75;1784419;79;20964;-56
2022/10/14 11:24:04;;;;;;;14.73;10.60;;;;;;;12.04;80.04;98530.53;1742783;80;21126;-56
2022/10/14 11:27:08;;;;;;;12.47;9.63;;;;;;;12.02;80.11;98535.39;1734489;81;21051;-56
2022/10/14 11:29:52;;;;;;;12.05;9.33;;;;;;;11.96;79.61;98525.27;1785965;79;21094;-56
2022/10/14 11:32:57;;;;;;;13.68;9.73;;;;;;;11.93;79.78;98523.15;1784912;79;21126;-56
2022/10/14 11:35:42;;;;;;;11.97;9.50;;;;;;;11.97;80.05;98527.39;1773498;79;21101;-57
2022/10/14 11:38:40;;;;;;;13.65;10.45;;;;;;;11.97;79.74;98528.20;1767839;79;21028;-57
2022/10/14 11:41:39;;;;;;;18.42;10.13;;;;;;;11.93;79.79;98524.49;1784948;79;21067;-56
2022/10/14 11:44:35;;;;;;;17.10;10.78;;;;;;;11.90;80.03;98525.05;1739168;81;21199;-57
2022/10/14 11:47:12;;;;;;;16.67;10.58;;;;;;;11.89;80.22;98520.79;1776816;80;21006;-58
2022/10/14 11:49:48;;;;;;;18.48;10.38;;;;;;;11.91;80.36;98517.27;1774476;80;21385;-56
2022/10/14 11:52:21;;;;;;;13.13;9.48;;;;;;;11.91;80.05;98519.95;1731954;80;22021;-56
2022/10/14 11:55:16;;;;;;;11.75;9.38;;;;;;;11.87;80.02;98522.16;1783989;79;21002;-56
2022/10/14 11:58:03;;;;;;;11.00;9.50;;;;;;;11.80;80.19;98521.13;1775223;80;21222;-56
2022/10/14 12:04:07;;;;;;;13.08;10.00;;;;;;;11.65;81.13;98512.70;1775217;80;21473;-56
2022/10/14 12:06:57;;;;;;;30.45;22.98;;;;;;;11.57;81.53;98512.49;1744890;79;21309;-57
2022/10/14 12:09:57;;;;;;;17.35;13.32;;;;;;;11.48;81.92;98515.53;1744809;80;21141;-57
2022/10/14 12:12:27;;;;;;;69.45;47.15;;;;;;;11.40;82.41;98517.52;1757490;79;21201;-56
2022/10/14 12:15:07;;;;;;;58.63;37.20;;;;;;;11.31;82.87;98514.62;1751306;79;21755;-57
2022/10/14 12:17:57;;;;;;;64.65;46.15;;;;;;;11.26;83.27;98502.59;1725290;81;21093;-55
2022/10/14 12:20:56;;;;;;;33.80;22.27;;;;;;;11.22;83.61;98504.25;1777396;79;21506;-56
2022/10/14 12:23:37;;;;;;;56.13;42.43;;;;;;;11.22;83.63;98508.80;1779499;79;21549;-56
2022/10/14 12:26:25;;;;;;;30.23;22.02;;;;;;;11.18;83.78;98509.11;1745305;79;21076;-56
2022/10/14 12:28:52;;;;;;;82.50;58.20;;;;;;;11.15;83.92;98504.30;1733360;80;21080;-57